createdAt,value
2023-03-01T00:02:05.638Z,102694.78
2023-03-01T00:04:53.788Z,102697.47
2023-03-01T00:07:40.480Z,102689.59
2023-03-01T00:10:27.628Z,102683.31
2023-03-01T00:13:14.545Z,102688.47
2023-03-01T00:16:03.307Z,102680.81
2023-03-01T00:18:50.263Z,102695.44
2023-03-01T00:21:38.110Z,102692.56
2023-03-01T00:24:24.904Z,102699.38
2023-03-01T00:27:11.584Z,102701.84
2023-03-01T00:29:58.243Z,102701.03
2023-03-01T00:32:45.592Z,102690.56
2023-03-01T00:35:34.055Z,102699.25
2023-03-01T00:38:22.075Z,102692.25
2023-03-01T00:41:10.348Z,102686.56
2023-03-01T00:43:57.540Z,102685.44
2023-03-01T00:46:44.343Z,102686.16
2023-03-01T00:49:31.280Z,102683.09
2023-03-01T00:52:17.782Z,102685.22
2023-03-01T00:55:07.444Z,102679.81
2023-03-01T00:57:54.525Z,102680.78
2023-03-01T01:00:41.159Z,102672.91
2023-03-01T01:03:28.528Z,102664.06
2023-03-01T01:06:16.743Z,102652.78
2023-03-01T01:09:04.915Z,102651.97
2023-03-01T01:11:53.487Z,102649.38
2023-03-01T01:14:40.377Z,102626.75
2023-03-01T01:17:29.785Z,102632.97
2023-03-01T01:20:16.850Z,102637.94
2023-03-01T01:23:03.347Z,102628.22
2023-03-01T01:25:50.272Z,102623.25
2023-03-01T01:28:38.528Z,102620.44
2023-03-01T01:31:26.027Z,102625.47
2023-03-01T01:34:16.793Z,102610.34
2023-03-01T01:37:03.914Z,102617.97
2023-03-01T01:39:50.407Z,102615.09
2023-03-01T01:42:37.259Z,102606.56
2023-03-01T01:45:33.152Z,102609.81
2023-03-01T01:48:23.554Z,102617.31
2023-03-01T01:51:15.001Z,102615.22
2023-03-01T01:54:03.085Z,102616.78
2023-03-01T01:56:54.524Z,102620.19
2023-03-01T01:59:44.863Z,102619.94
2023-03-01T02:02:33.406Z,102617.13
2023-03-01T02:05:26.363Z,102614.03
2023-03-01T02:08:14.507Z,102618.13
2023-03-01T02:11:01.885Z,102624.06
2023-03-01T02:13:50.059Z,102626.13
2023-03-01T02:16:37.260Z,102625.66
2023-03-01T02:19:36.455Z,102628.25
2023-03-01T02:22:26.217Z,102627.94
2023-03-01T02:25:30.303Z,102637.47
2023-03-01T02:28:34.563Z,102627.94
2023-03-01T02:31:40.207Z,102625.03
2023-03-01T02:34:28.494Z,102619.03
2023-03-01T02:37:21.570Z,102608.50
2023-03-01T02:40:13.719Z,102611.25
2023-03-01T02:43:01.381Z,102615.19
2023-03-01T02:45:52.698Z,102615.69
2023-03-01T02:48:44.631Z,102618.72
2023-03-01T02:51:45.318Z,102607.28
2023-03-01T02:54:38.778Z,102620.34
2023-03-01T02:57:28.381Z,102622.28
2023-03-01T03:00:21.082Z,102620.38
2023-03-01T03:03:09.427Z,102620.66
2023-03-01T03:05:56.056Z,102610.78
2023-03-01T03:08:42.838Z,102605.38
2023-03-01T03:11:29.876Z,102602.72
2023-03-01T03:14:18.273Z,102595.75
2023-03-01T03:17:07.671Z,102600.28
2023-03-01T03:19:55.538Z,102603.69
2023-03-01T03:22:42.876Z,102607.16
2023-03-01T03:25:31.154Z,102598.34
2023-03-01T03:28:17.989Z,102595.00
2023-03-01T03:31:07.621Z,102596.34
2023-03-01T03:33:54.210Z,102591.59
2023-03-01T03:36:42.294Z,102580.75
2023-03-01T03:39:30.035Z,102577.75
2023-03-01T03:42:16.622Z,102575.09
2023-03-01T03:45:03.252Z,102572.41
2023-03-01T03:47:50.679Z,102565.38
2023-03-01T03:50:37.831Z,102556.69
2023-03-01T03:53:28.505Z,102543.69
2023-03-01T03:56:15.334Z,102561.78
2023-03-01T03:59:02.087Z,102564.22
2023-03-01T04:01:48.984Z,102563.13
2023-03-01T04:04:35.551Z,102557.59
2023-03-01T04:07:22.340Z,102565.09
2023-03-01T04:10:14.322Z,102556.38
2023-03-01T04:13:01.285Z,102553.72
2023-03-01T04:15:48.348Z,102562.00
2023-03-01T04:18:34.707Z,102560.38
2023-03-01T04:21:21.950Z,102560.38
2023-03-01T04:24:10.727Z,102559.31
2023-03-01T04:26:58.501Z,102555.75
2023-03-01T04:29:45.359Z,102549.69
2023-03-01T04:32:32.842Z,102554.91
2023-03-01T04:35:19.417Z,102554.44
2023-03-01T04:38:06.832Z,102553.09
2023-03-01T04:40:53.655Z,102565.88
2023-03-01T04:43:41.799Z,102562.31
2023-03-01T04:46:28.261Z,102576.97
2023-03-01T04:49:15.284Z,102558.75
2023-03-01T04:52:03.189Z,102560.38
2023-03-01T04:54:49.725Z,102563.22
2023-03-01T04:57:36.816Z,102554.94
2023-03-01T05:00:25.784Z,102535.94
2023-03-01T05:03:12.401Z,102550.41
2023-03-01T05:06:01.728Z,102551.38
2023-03-01T05:08:48.521Z,102548.78
2023-03-01T05:11:36.947Z,102549.94
2023-03-01T05:14:24.009Z,102538.44
2023-03-01T05:17:11.843Z,102547.41
2023-03-01T05:20:00.712Z,102541.44
2023-03-01T05:22:47.626Z,102538.75
2023-03-01T05:25:35.698Z,102531.06
2023-03-01T05:28:22.363Z,102528.88
2023-03-01T05:31:10.820Z,102535.09
2023-03-01T05:33:59.008Z,102526.59
2023-03-01T05:36:50.292Z,102528.31
2023-03-01T05:39:37.208Z,102532.94
2023-03-01T05:42:23.844Z,102525.88
2023-03-01T05:45:11.677Z,102527.81
2023-03-01T05:47:58.344Z,102522.31
2023-03-01T05:50:48.205Z,102525.00
2023-03-01T05:53:34.823Z,102530.91
2023-03-01T05:56:24.412Z,102534.22
2023-03-01T05:59:11.596Z,102530.09
2023-03-01T06:01:58.462Z,102537.22
2023-03-01T06:04:46.589Z,102533.91
2023-03-01T06:07:35.217Z,102536.66
2023-03-01T06:10:23.597Z,102532.28
2023-03-01T06:13:10.328Z,102504.44
2023-03-01T06:15:56.947Z,102546.53
2023-03-01T06:18:43.785Z,102533.41
2023-03-01T06:21:30.204Z,102546.81
2023-03-01T06:24:18.365Z,102547.88
2023-03-01T06:27:04.965Z,102513.31
2023-03-01T06:29:51.715Z,102555.38
2023-03-01T06:32:38.828Z,102561.63
2023-03-01T06:35:31.048Z,102553.56
2023-03-01T06:38:19.930Z,102549.47
2023-03-01T06:41:08.463Z,102552.09
2023-03-01T06:43:56.053Z,102546.09
2023-03-01T06:46:42.946Z,102552.91
2023-03-01T06:49:29.662Z,102549.94
2023-03-01T06:52:16.346Z,102551.72
2023-03-01T06:55:03.349Z,102551.66
2023-03-01T06:57:55.735Z,102553.25
2023-03-01T07:00:44.105Z,102544.22
2023-03-01T07:06:17.009Z,102549.16
2023-03-01T07:09:04.107Z,102553.22
2023-03-01T07:11:50.872Z,102551.72
2023-03-01T07:14:38.723Z,102549.94
2023-03-01T07:17:25.324Z,102547.88
2023-03-01T07:20:13.383Z,102552.13
2023-03-01T07:22:59.997Z,102561.28
2023-03-01T07:25:46.577Z,102563.47
2023-03-01T07:28:36.955Z,102566.19
2023-03-01T07:31:25.095Z,102562.84
2023-03-01T07:34:12.782Z,102560.25
2023-03-01T07:36:59.289Z,102555.59
2023-03-01T07:39:46.099Z,102549.50
2023-03-01T07:42:33.004Z,102551.34
2023-03-01T07:45:19.902Z,102544.91
2023-03-01T07:48:07.957Z,102549.19
2023-03-01T07:50:54.463Z,102549.34
2023-03-01T07:53:41.275Z,102540.81
2023-03-01T07:56:28.171Z,102540.34
2023-03-01T07:59:14.894Z,102512.81
2023-03-01T08:02:01.787Z,102541.28
2023-03-01T08:04:50.021Z,102541.47
2023-03-01T08:07:37.064Z,102540.84
2023-03-01T08:10:23.610Z,102546.38
2023-03-01T08:13:10.097Z,102550.50
2023-03-01T08:15:57.123Z,102547.56
2023-03-01T08:18:44.158Z,102537.94
2023-03-01T08:21:32.357Z,102535.50
2023-03-01T08:24:19.186Z,102535.66
2023-03-01T08:27:05.946Z,102524.75
2023-03-01T08:29:52.723Z,102527.94
2023-03-01T08:32:41.243Z,102520.41
2023-03-01T08:35:27.861Z,102516.69
2023-03-01T08:38:16.044Z,102514.91
2023-03-01T08:41:03.112Z,102491.88
2023-03-01T08:43:50.080Z,102515.72
2023-03-01T08:46:39.243Z,102512.16
2023-03-01T08:49:25.979Z,102506.81
2023-03-01T08:52:12.983Z,102505.41
2023-03-01T08:55:02.494Z,102507.16
2023-03-01T08:57:48.916Z,102497.94
2023-03-01T09:00:36.481Z,102500.97
2023-03-01T09:03:23.213Z,102503.09
2023-03-01T09:06:11.093Z,102500.53
2023-03-01T09:08:57.810Z,102501.03
2023-03-01T09:11:47.825Z,102504.63
2023-03-01T09:14:35.562Z,102472.78
2023-03-01T09:17:22.710Z,102496.66
2023-03-01T09:20:10.333Z,102495.31
2023-03-01T09:22:57.190Z,102498.75
2023-03-01T09:25:44.607Z,102497.25
2023-03-01T09:28:32.708Z,102496.69
2023-03-01T09:31:21.004Z,102496.94
2023-03-01T09:34:08.528Z,102505.25
2023-03-01T09:36:55.077Z,102498.44
2023-03-01T09:39:41.827Z,102497.56
2023-03-01T09:42:32.184Z,102487.81
2023-03-01T09:45:28.942Z,102497.72
2023-03-01T09:48:20.332Z,102497.81
2023-03-01T09:51:11.065Z,102495.34
2023-03-01T09:53:59.715Z,102496.00
2023-03-01T09:56:55.270Z,102486.56
2023-03-01T09:59:58.207Z,102487.78
2023-03-01T10:02:50.777Z,102491.41
2023-03-01T10:05:45.705Z,102491.56
2023-03-01T10:08:40.144Z,102486.19
2023-03-01T10:11:32.838Z,102486.25
2023-03-01T10:14:32.692Z,102485.50
2023-03-01T10:17:29.983Z,102480.44
2023-03-01T10:20:23.954Z,102479.50
2023-03-01T10:23:11.201Z,102482.94
2023-03-01T10:26:16.553Z,102474.28
2023-03-01T10:29:08.895Z,102488.28
2023-03-01T10:31:56.663Z,102476.91
2023-03-01T10:34:43.296Z,102465.59
2023-03-01T10:37:31.289Z,102461.34
2023-03-01T10:40:20.054Z,102465.88
2023-03-01T10:43:08.508Z,102465.06
2023-03-01T10:45:55.248Z,102444.00
2023-03-01T10:48:42.024Z,102429.91
2023-03-01T10:51:28.779Z,102444.78
2023-03-01T10:54:22.863Z,102442.69
2023-03-01T10:57:30.523Z,102446.16
2023-03-01T11:00:26.079Z,102444.41
2023-03-01T11:03:14.920Z,102444.31
2023-03-01T11:06:19.025Z,102431.81
2023-03-01T11:09:17.614Z,102433.59
2023-03-01T11:12:16.064Z,102435.59
2023-03-01T11:15:03.489Z,102437.69
2023-03-01T11:17:57.037Z,102437.63
2023-03-01T11:20:48.248Z,102432.41
2023-03-01T11:23:35.895Z,102433.34
2023-03-01T11:26:23.553Z,102425.41
2023-03-01T11:29:20.398Z,102436.88
2023-03-01T11:32:11.212Z,102434.16
2023-03-01T11:35:03.851Z,102434.28
2023-03-01T11:38:05.475Z,102397.22
2023-03-01T11:40:59.589Z,102418.38
2023-03-01T11:43:53.768Z,102422.00
2023-03-01T11:47:03.915Z,102419.34
2023-03-01T11:50:13.400Z,102426.41
2023-03-01T11:53:11.928Z,102418.47
2023-03-01T11:56:11.920Z,102412.28
2023-03-01T11:59:20.748Z,102401.72
2023-03-01T12:02:30.311Z,102399.97
2023-03-01T12:05:28.608Z,102405.25
2023-03-01T12:08:21.292Z,102399.97
2023-03-01T12:11:22.390Z,102396.41
2023-03-01T12:14:45.984Z,102401.69
2023-03-01T12:17:49.935Z,102399.06
2023-03-01T12:20:44.699Z,102393.72
2023-03-01T12:23:54.739Z,102393.69
2023-03-01T12:26:52.385Z,102383.97
2023-03-01T12:29:45.010Z,102382.22
2023-03-01T12:32:45.771Z,102377.84
2023-03-01T12:35:56.366Z,102364.56
2023-03-01T12:38:44.675Z,102370.72
2023-03-01T12:41:45.822Z,102355.72
2023-03-01T12:44:59.485Z,102359.25
2023-03-01T12:48:05.488Z,102353.06
2023-03-01T12:50:55.503Z,102348.66
2023-03-01T12:53:46.144Z,102345.19
2023-03-01T12:56:36.862Z,102341.66
2023-03-01T12:59:30.638Z,102340.81
2023-03-01T13:02:25.478Z,102330.22
2023-03-01T13:05:31.390Z,102350.47
2023-03-01T13:08:25.547Z,102345.16
2023-03-01T13:11:19.916Z,102332.78
2023-03-01T13:14:52.515Z,102331.00
2023-03-01T13:17:47.740Z,102333.66
2023-03-01T13:20:49.086Z,102317.81
2023-03-01T13:23:38.511Z,102325.75
2023-03-01T13:26:25.041Z,102315.13
2023-03-01T13:29:28.362Z,102308.09
2023-03-01T13:32:28.818Z,102303.63
2023-03-01T13:35:44.954Z,102308.09
2023-03-01T13:38:48.414Z,102301.09
2023-03-01T13:41:52.583Z,102298.34
2023-03-01T13:44:40.337Z,102297.47
2023-03-01T13:47:27.039Z,102294.03
2023-03-01T13:50:22.471Z,102285.13
2023-03-01T13:53:18.400Z,102285.22
2023-03-01T13:56:11.390Z,102287.78
2023-03-01T13:59:03.972Z,102273.66
2023-03-01T14:01:55.501Z,102239.47
2023-03-01T14:04:42.223Z,102273.66
2023-03-01T14:07:31.478Z,102267.50
2023-03-01T14:10:19.818Z,102264.88
2023-03-01T14:13:22.648Z,102257.81
2023-03-01T14:16:26.208Z,102260.53
2023-03-01T14:19:32.068Z,102252.63
2023-03-01T14:22:23.945Z,102258.81
2023-03-01T14:25:24.885Z,102258.72
2023-03-01T14:28:18.447Z,102251.72
2023-03-01T14:31:06.114Z,102250.84
2023-03-01T14:33:57.975Z,102245.59
2023-03-01T14:36:44.783Z,102243.81
2023-03-01T14:39:34.306Z,102249.19
2023-03-01T14:42:23.607Z,102244.81
2023-03-01T14:45:15.826Z,102242.19
2023-03-01T14:48:05.439Z,102242.97
2023-03-01T14:50:52.854Z,102228.91
2023-03-01T14:53:50.329Z,102242.94
2023-03-01T14:56:47.177Z,102237.63
2023-03-01T14:59:35.785Z,102228.78
2023-03-01T15:02:25.492Z,102190.91
2023-03-01T15:05:12.633Z,102231.47
2023-03-01T15:08:01.005Z,102227.97
2023-03-01T15:11:01.107Z,102229.59
2023-03-01T15:13:48.373Z,102225.25
2023-03-01T15:16:42.398Z,102224.34
2023-03-01T15:19:30.663Z,102220.88
2023-03-01T15:22:18.471Z,102227.22
2023-03-01T15:25:05.270Z,102221.06
2023-03-01T15:27:54.327Z,102222.88
2023-03-01T15:30:41.211Z,102222.81
2023-03-01T15:33:35.975Z,102214.03
2023-03-01T15:36:39.351Z,102218.47
2023-03-01T15:39:39.402Z,102207.06
2023-03-01T15:42:38.881Z,102213.22
2023-03-01T15:45:28.334Z,102212.31
2023-03-01T15:48:21.086Z,102212.38
2023-03-01T15:51:16.650Z,102207.09
2023-03-01T15:54:09.384Z,102206.19
2023-03-01T15:56:56.175Z,102163.03
2023-03-01T15:59:42.977Z,102209.69
2023-03-01T16:02:30.172Z,102204.41
2023-03-01T16:05:21.778Z,102201.75
2023-03-01T16:08:10.273Z,102207.00
2023-03-01T16:10:57.226Z,102214.03
2023-03-01T16:13:43.880Z,102212.16
2023-03-01T16:16:31.256Z,102205.94
2023-03-01T16:19:18.610Z,102198.81
2023-03-01T16:22:06.527Z,102209.28
2023-03-01T16:24:55.245Z,102206.50
2023-03-01T16:28:07.768Z,102206.41
2023-03-01T16:30:55.084Z,102201.97
2023-03-01T16:33:43.349Z,102200.91
2023-03-01T16:36:30.225Z,102207.91
2023-03-01T16:39:17.527Z,102212.13
2023-03-01T16:42:05.656Z,102210.31
2023-03-01T16:44:57.028Z,102218.13
2023-03-01T16:47:43.809Z,102207.38
2023-03-01T16:50:30.748Z,102208.41
2023-03-01T16:53:17.504Z,102211.59
2023-03-01T16:56:06.372Z,102218.53
2023-03-01T16:58:54.549Z,102215.72
2023-03-01T17:01:43.297Z,102218.13
2023-03-01T17:04:30.493Z,102210.31
2023-03-01T17:07:17.261Z,102215.53
2023-03-01T17:10:05.532Z,102221.59
2023-03-01T17:12:52.494Z,102228.34
2023-03-01T17:15:42.529Z,102228.00
2023-03-01T17:18:29.380Z,102225.16
2023-03-01T17:21:17.559Z,102229.59
2023-03-01T17:24:04.908Z,102225.97
2023-03-01T17:26:51.438Z,102226.69
2023-03-01T17:29:39.378Z,102223.88
2023-03-01T17:32:27.651Z,102221.19
2023-03-01T17:35:14.530Z,102218.19
2023-03-01T17:38:00.964Z,102218.84
2023-03-01T17:40:48.100Z,102222.28
2023-03-01T17:43:35.663Z,102225.69
2023-03-01T17:46:22.326Z,102221.00
2023-03-01T17:49:12.887Z,102230.47
2023-03-01T17:52:00.433Z,102248.75
2023-03-01T17:54:48.099Z,102239.00
2023-03-01T17:57:35.204Z,102235.38
2023-03-01T18:00:22.492Z,102237.34
2023-03-01T18:03:09.125Z,102236.56
2023-03-01T18:05:58.758Z,102236.09
2023-03-01T18:08:46.422Z,102226.22
2023-03-01T18:11:35.458Z,102224.38
2023-03-01T18:14:22.030Z,102220.16
2023-03-01T18:17:12.167Z,102217.16
2023-03-01T18:19:59.069Z,102220.59
2023-03-01T18:22:48.985Z,102230.63
2023-03-01T18:25:35.868Z,102227.63
2023-03-01T18:28:23.762Z,102237.19
2023-03-01T18:31:12.264Z,102234.22
2023-03-01T18:33:59.007Z,102238.47
2023-03-01T18:37:00.527Z,102241.53
2023-03-01T18:39:54.853Z,102243.94
2023-03-01T18:42:41.654Z,102238.41
2023-03-01T18:45:28.429Z,102253.13
2023-03-01T18:48:16.203Z,102245.28
2023-03-01T18:51:10.460Z,102242.22
2023-03-01T18:53:58.717Z,102242.94
2023-03-01T18:56:47.086Z,102242.09
2023-03-01T18:59:37.001Z,102246.44
2023-03-01T19:02:23.794Z,102249.84
2023-03-01T19:05:10.885Z,102250.84
2023-03-01T19:07:57.305Z,102248.09
2023-03-01T19:10:44.086Z,102242.16
2023-03-01T19:13:33.057Z,102252.88
2023-03-01T19:16:22.999Z,102248.09
2023-03-01T19:19:10.221Z,102251.25
2023-03-01T19:22:05.830Z,102257.16
2023-03-01T19:24:52.575Z,102255.28
2023-03-01T19:27:39.464Z,102263.88
2023-03-01T19:30:30.038Z,102255.88
2023-03-01T19:33:16.787Z,102256.56
2023-03-01T19:36:04.635Z,102235.34
2023-03-01T19:38:52.929Z,102262.47
2023-03-01T19:41:40.530Z,102262.53
2023-03-01T19:44:27.175Z,102257.25
2023-03-01T19:47:15.298Z,102267.75
2023-03-01T19:50:02.274Z,102258.13
2023-03-01T19:52:49.173Z,102256.22
2023-03-01T19:55:37.775Z,102255.25
2023-03-01T19:58:24.536Z,102253.66
2023-03-01T20:01:18.921Z,102247.41
2023-03-01T20:04:09.144Z,102253.44
2023-03-01T20:06:56.184Z,102258.75
2023-03-01T20:09:43.143Z,102255.13
2023-03-01T20:12:29.817Z,102253.25
2023-03-01T20:15:16.778Z,102249.63
2023-03-01T20:18:03.363Z,102252.13
2023-03-01T20:20:52.101Z,102233.53
2023-03-01T20:23:38.756Z,102244.91
2023-03-01T20:26:26.935Z,102246.56
2023-03-01T20:29:14.790Z,102243.13
2023-03-01T20:32:02.341Z,102247.41
2023-03-01T20:34:49.836Z,102249.00
2023-03-01T20:37:38.929Z,102247.22
2023-03-01T20:40:28.976Z,102249.94
2023-03-01T20:43:16.410Z,102252.94
2023-03-01T20:46:05.607Z,102246.44
2023-03-01T20:48:52.734Z,102233.66
2023-03-01T20:51:39.714Z,102151.47
2023-03-01T20:54:28.041Z,102246.97
2023-03-01T20:57:15.484Z,102238.94
2023-03-01T21:00:04.068Z,102235.31
2023-03-01T21:02:51.069Z,102248.34
2023-03-01T21:05:40.310Z,102243.78
2023-03-01T21:08:27.722Z,102240.34
2023-03-01T21:11:18.418Z,102248.44
2023-03-01T21:14:05.556Z,102251.91
2023-03-01T21:16:52.113Z,102256.88
2023-03-01T21:19:39.338Z,102255.81
2023-03-01T21:22:26.171Z,102248.50
2023-03-01T21:25:12.998Z,102256.22
2023-03-01T21:28:01.192Z,102253.34
2023-03-01T21:30:48.022Z,102252.22
2023-03-01T21:33:35.193Z,102256.38
2023-03-01T21:36:22.748Z,102245.72
2023-03-01T21:39:09.571Z,102251.97
2023-03-01T21:41:57.501Z,102248.50
2023-03-01T21:44:45.586Z,102258.06
2023-03-01T21:47:32.292Z,102249.41
2023-03-01T21:50:19.448Z,102261.50
2023-03-01T21:53:06.316Z,102248.97
2023-03-01T21:55:53.787Z,102247.19
2023-03-01T21:58:41.642Z,102244.53
2023-03-01T22:01:30.336Z,102247.91
2023-03-01T22:04:17.777Z,102238.19
2023-03-01T22:07:04.839Z,102238.06
2023-03-01T22:09:51.482Z,102236.25
2023-03-01T22:12:38.207Z,102244.56
2023-03-01T22:15:25.483Z,102235.63
2023-03-01T22:18:14.674Z,102236.41
2023-03-01T22:21:05.178Z,102238.91
2023-03-01T22:23:52.778Z,102227.94
2023-03-01T22:26:42.028Z,102232.06
2023-03-01T22:29:30.415Z,102234.84
2023-03-01T22:32:17.447Z,102233.94
2023-03-01T22:35:06.018Z,102234.72
2023-03-01T22:37:52.792Z,102231.00
2023-03-01T22:40:40.056Z,102233.25
2023-03-01T22:43:27.603Z,102234.84
2023-03-01T22:46:17.663Z,102234.94
2023-03-01T22:49:05.437Z,102232.75
2023-03-01T22:51:53.634Z,102236.94
2023-03-01T22:54:41.565Z,102229.81
2023-03-01T22:57:28.386Z,102230.59
2023-03-01T23:00:15.732Z,102238.47
2023-03-01T23:03:02.779Z,102227.03
2023-03-01T23:05:49.622Z,102228.72
2023-03-01T23:08:37.991Z,102228.63
2023-03-01T23:11:26.353Z,102227.00
2023-03-01T23:14:13.237Z,102215.16
2023-03-01T23:17:01.726Z,102220.38
2023-03-01T23:19:48.509Z,102216.94
2023-03-01T23:22:35.046Z,102213.34
2023-03-01T23:25:23.369Z,102210.63
2023-03-01T23:28:10.474Z,102209.75
2023-03-01T23:30:58.897Z,102210.59
2023-03-01T23:33:46.527Z,102212.25
2023-03-01T23:36:35.691Z,102211.31
2023-03-01T23:39:23.683Z,102217.38
2023-03-01T23:42:11.792Z,102219.97
2023-03-01T23:44:58.501Z,102218.41
2023-03-01T23:47:45.296Z,102218.47
2023-03-01T23:50:32.089Z,102218.47
2023-03-01T23:53:21.161Z,102205.06
2023-03-01T23:56:09.128Z,102200.59
2023-03-01T23:58:58.399Z,102213.31
